Aérodrome :
LOGIN :

S'inscrire | Disclaimer

   EN    FR    IT 

 










Légende :    VFR   VFR Marginal   IFR   IFR Intensif   IFR Très Intensif
Visi : 
Plafond : 
>= 8 km
>= 3000ft
5 à 8 km
1000 à 3000 ft
1500m à 5 km
500 à 1000 ft
800 à 1500m
200 à 500 ft
< 800m
< 200 ft
Symboles :   Orages  Brouillard  Fortes neiges  Fortes précipitations  Vent > 20 kt
SIGMETs :   Divers  Orages  Givrage  Turbulence  Onde Orograph.  Cendres Volcan.






- Altitude de l'aérodrome : 1300 ft
- Code IATA : LIG


LFBL - Limoges

DERNIER METAR :
  • 240230Z AUTO 17008KT 9999 BKN017 BKN056 08/06 Q1021 TEMPO BKN010

METARs EXPIRÉS :
  • 240200Z AUTO 15009KT 9999 BKN019/// BKN025/// BKN056/// ///TCU 08/06 Q1021 BECMG BKN040
  • 240130Z AUTO 14007KT 9999 OVC021 09/06 Q1020 NOSIG
  • 240100Z AUTO 14007KT 110V180 9999 BKN022 OVC029 09/05 Q1020 NOSIG
  • 240030Z AUTO 13007KT 100V160 9999 FEW028 BKN038 BKN046 09/05 Q1020 NOSIG
  • 240000Z AUTO 14007KT 9999 FEW042 BKN054 09/05 Q1020 NOSIG

TAF TAF LFBL
Valide du 24 à 00h jusqu'au 25 à 00h UTC


232300Z 2400/2424 09008KT 9999 BKN040
PROB40 2404/2408 BKN010
PROB30 2405/2408 4000 BR OVC005
ATIS : +33 5 55 48 40 37



MET'MAP, la Météo Aéronautique d'un coup d'oeil ! - Copyright ORBIFLY Décembre 2007 - Disclaimer

ORBIFLY MET'MAP TEAM :

Programmation & Développement : Alexandra Zaïnal
Sur une idée originale de : Baudouin d'Aumeries
Assistance à la programmation : Marc-Olivier Méhu
Soutien technique & logistique : Manuel Goepfert

Contact : metmap@orbifly.com




SOURCES & CREDITS :

   NOAA